Time;durP1;ratioP1;P1;durP2;ratioP2;P2;SDS_P1;SDS_P2;PMS_P1;PMS_P2;Temp;Humidity;BMP_temperature;BMP_pressure;BME280_temperature;BME280_humidity;BME280_pressure;Samples;Min_cycle;Max_cycle;Signal;HPM_P1;HPM_P2
2022/05/05 00:02:01;;;;;;;;;;;;;;;7.43;40.12;99842.75;4792483;29;20131;-75
2022/05/05 00:04:27;;;;;;;4.43;1.50;;;;;;;7.10;42.13;99845.75;4799043;29;19975;-74
2022/05/05 00:06:53;;;;;;;2.67;1.42;;;;;;;7.02;42.16;99853.41;4797960;29;20474;-76
2022/05/05 00:09:18;;;;;;;3.60;1.75;;;;;;;6.98;42.35;99856.81;4790502;29;20467;-76
2022/05/05 00:14:31;;;;;;;7.93;2.13;;;;;;;6.68;44.39;99857.22;4795602;29;20063;-76
2022/05/05 00:17:00;;;;;;;6.53;2.17;;;;;;;6.61;43.66;99858.00;4795849;29;20555;-76
2022/05/05 00:19:27;;;;;;;3.97;1.92;;;;;;;6.54;44.29;99859.59;4787932;29;20104;-76
2022/05/05 00:21:52;;;;;;;5.28;2.30;;;;;;;6.73;44.17;99865.03;4796242;29;20046;-76
2022/05/05 00:24:18;;;;;;;8.57;3.13;;;;;;;6.78;44.41;99868.53;4786487;29;20070;-76
2022/05/05 00:26:44;;;;;;;6.28;2.55;;;;;;;6.64;44.77;99868.34;4798088;29;20400;-77
2022/05/05 00:29:10;;;;;;;6.78;2.30;;;;;;;6.41;45.10;99878.28;4770572;30;20055;-76
2022/05/05 00:31:35;;;;;;;5.70;2.22;;;;;;;6.32;45.25;99872.97;4788464;29;20517;-76
2022/05/05 00:34:01;;;;;;;6.18;2.22;;;;;;;6.18;45.69;99877.91;4795546;29;20044;-77
2022/05/05 00:36:27;;;;;;;8.10;2.17;;;;;;;6.23;45.72;99868.56;4773015;29;20054;-75
2022/05/05 00:38:53;;;;;;;4.53;2.08;;;;;;;6.37;44.62;99881.69;4785502;29;20936;-76
2022/05/05 00:41:18;;;;;;;9.13;2.08;;;;;;;6.45;43.98;99887.81;4770268;30;20101;-76
2022/05/05 00:43:44;;;;;;;2.75;1.50;;;;;;;6.46;43.83;99892.13;4786367;29;20099;-76
2022/05/05 00:46:10;;;;;;;6.03;1.42;;;;;;;6.45;44.01;99890.38;4791966;29;20438;-76
2022/05/05 00:48:35;;;;;;;5.07;1.60;;;;;;;6.56;43.86;99894.00;4791627;29;20051;-76
2022/05/05 00:51:01;;;;;;;4.75;1.33;;;;;;;6.59;42.95;99893.19;4783153;29;20122;-75
2022/05/05 00:53:27;;;;;;;2.20;1.20;;;;;;;6.68;43.36;99897.59;4795922;29;20111;-76
2022/05/05 00:55:56;;;;;;;2.83;1.20;;;;;;;6.56;42.94;99888.84;4794135;29;20048;-76
2022/05/05 00:58:23;;;;;;;4.82;2.17;;;;;;;6.55;42.31;99897.44;4802014;29;20051;-76
2022/05/05 01:00:49;;;;;;;2.60;1.10;;;;;;;6.54;42.42;99887.94;4792270;29;20039;-75
2022/05/05 01:03:15;;;;;;;2.35;1.33;;;;;;;6.50;42.93;99918.81;4758512;30;20043;-76
2022/05/05 01:05:40;;;;;;;4.40;1.35;;;;;;;6.47;42.97;99905.88;4796681;29;20043;-75
2022/05/05 01:08:06;;;;;;;2.17;1.15;;;;;;;6.61;42.76;99917.28;4795614;29;20100;-76
2022/05/05 01:10:33;;;;;;;2.65;1.33;;;;;;;6.73;42.74;99921.75;4805657;29;20055;-75
2022/05/05 01:13:01;;;;;;;2.35;1.35;;;;;;;6.73;42.62;99921.75;4801580;29;20054;-75
2022/05/05 01:15:28;;;;;;;2.53;1.10;;;;;;;6.55;42.47;99912.00;4796319;29;20039;-76
2022/05/05 01:17:54;;;;;;;3.88;1.40;;;;;;;6.72;42.82;99927.75;4793205;29;20057;-75
2022/05/05 01:20:22;;;;;;;2.08;1.10;;;;;;;6.71;42.71;99933.75;4794716;29;20042;-75
2022/05/05 01:22:49;;;;;;;2.42;1.17;;;;;;;6.52;42.42;99930.88;4796278;29;20114;-76
2022/05/05 01:28:10;;;;;;;2.22;1.30;;;;;;;6.50;42.56;99937.72;4787641;29;20104;-76
2022/05/05 01:30:46;;;;;;;3.30;1.20;;;;;;;6.63;42.52;99941.34;4788892;29;20062;-75
2022/05/05 01:33:15;;;;;;;5.70;1.30;;;;;;;6.54;43.04;99936.91;4787796;30;20129;-76
2022/05/05 01:35:41;;;;;;;2.85;1.30;;;;;;;6.60;42.62;99947.34;4773365;30;20035;-75
2022/05/05 01:38:12;;;;;;;6.93;1.40;;;;;;;6.54;43.14;99946.38;4781287;29;20129;-76
2022/05/05 01:40:39;;;;;;;5.47;1.30;;;;;;;6.54;43.48;99948.94;4787611;29;20054;-76
2022/05/05 01:43:07;;;;;;;3.25;1.35;;;;;;;6.55;43.49;99954.16;4789895;29;20050;-75
2022/05/05 01:45:33;;;;;;;3.67;1.55;;;;;;;6.44;43.69;99950.50;4789064;29;20062;-75
2022/05/05 01:47:59;;;;;;;3.05;1.40;;;;;;;6.42;43.22;99962.50;4787862;29;20035;-75
2022/05/05 01:50:25;;;;;;;4.00;1.60;;;;;;;6.35;43.56;99951.22;4797444;29;20055;-76
2022/05/05 01:52:51;;;;;;;;;;;;;;;6.51;42.82;99964.38;4788923;29;20129;-76
2022/05/05 01:55:17;;;;;;;3.65;1.25;;;;;;;6.27;43.30;99962.22;4799956;29;19921;-76
2022/05/05 01:57:43;;;;;;;4.22;1.40;;;;;;;6.13;44.34;99961.09;4787323;29;20040;-77
2022/05/05 02:00:09;;;;;;;2.63;1.33;;;;;;;6.09;44.02;99967.88;4758964;29;20057;-75
2022/05/05 02:02:44;;;;;;;4.40;1.63;;;;;;;6.10;44.08;99967.06;4795556;29;20038;-75
2022/05/05 02:05:10;;;;;;;5.22;1.70;;;;;;;6.07;43.85;99960.16;4792295;29;20047;-76
2022/05/05 02:07:36;;;;;;;2.58;1.40;;;;;;;6.05;43.02;99956.69;4787187;29;20103;-75
2022/05/05 02:10:06;;;;;;;3.38;1.17;;;;;;;6.29;43.73;99976.88;4788759;29;20065;-76
2022/05/05 02:12:32;;;;;;;3.20;1.10;;;;;;;6.22;43.10;99980.16;4779712;29;20078;-76
2022/05/05 02:14:58;;;;;;;3.03;1.30;;;;;;;6.22;43.17;99982.75;4787559;29;20042;-75
2022/05/05 02:17:24;;;;;;;2.55;1.20;;;;;;;6.21;43.61;99981.00;4799478;29;20067;-77
2022/05/05 02:19:50;;;;;;;2.83;1.20;;;;;;;6.13;43.83;99992.00;4788493;29;20487;-76
2022/05/05 02:22:16;;;;;;;5.55;1.83;;;;;;;6.16;43.08;99998.09;4801104;29;20055;-75
2022/05/05 02:24:41;;;;;;;1.67;1.10;;;;;;;6.14;44.05;100001.47;4788005;29;20500;-76
2022/05/05 02:27:08;;;;;;;3.13;1.40;;;;;;;6.00;43.56;100003.78;4793158;29;20035;-75
2022/05/05 02:29:36;;;;;;;;;;;;;;;5.84;43.86;100007.72;4800466;29;20039;-75
2022/05/05 02:32:02;;;;;;;3.40;1.40;;;;;;;5.77;44.59;100008.41;4800173;29;19989;-76
2022/05/05 02:34:28;;;;;;;4.60;1.50;;;;;;;5.90;44.43;100020.72;4788895;29;20039;-76
2022/05/05 02:39:38;;;;;;;3.08;1.30;;;;;;;6.27;43.82;100019.75;4800653;29;20208;-76
2022/05/05 02:42:04;;;;;;;2.97;1.50;;;;;;;6.21;43.88;100024.81;4783632;29;20039;-76
2022/05/05 02:44:29;;;;;;;6.30;2.20;;;;;;;6.19;44.53;100033.34;4800394;29;20125;-76
2022/05/05 02:46:55;;;;;;;6.05;3.58;;;;;;;6.05;44.16;100022.78;4787742;29;20121;-75
2022/05/05 02:49:21;;;;;;;7.60;3.65;;;;;;;5.84;45.42;100025.75;4785583;29;20049;-76
2022/05/05 02:51:46;;;;;;;6.63;2.55;;;;;;;5.66;45.75;100033.06;4777290;29;20063;-76
2022/05/05 02:56:56;;;;;;;7.85;2.22;;;;;;;5.40;46.69;100040.22;4787468;29;20110;-76
2022/05/05 02:59:22;;;;;;;3.42;2.13;;;;;;;5.53;46.11;100055.09;4798823;29;20035;-76
2022/05/05 03:01:48;;;;;;;5.07;2.05;;;;;;;5.44;46.77;100049.75;4774453;29;20062;-76
2022/05/05 03:04:13;;;;;;;5.28;1.80;;;;;;;5.39;46.94;100044.50;4797269;29;20081;-76
2022/05/05 03:06:39;;;;;;;4.63;1.98;;;;;;;5.29;47.55;100052.84;4799160;29;20039;-76
2022/05/05 03:09:05;;;;;;;6.45;3.35;;;;;;;5.29;47.03;100058.84;4792812;29;20051;-75
2022/05/05 03:11:30;;;;;;;7.72;2.47;;;;;;;5.17;47.41;100055.97;4794768;29;20058;-76
2022/05/05 03:13:56;;;;;;;9.48;2.13;;;;;;;5.20;47.16;100052.63;4799802;29;20057;-76
2022/05/05 03:16:22;;;;;;;5.50;1.90;;;;;;;5.39;46.67;100065.06;4793200;29;20099;-75
2022/05/05 03:18:47;;;;;;;7.20;2.00;;;;;;;5.52;46.58;100050.78;4790929;29;20096;-77
2022/05/05 03:21:13;;;;;;;4.53;1.90;;;;;;;5.44;45.94;100068.63;4800844;29;20450;-75
2022/05/05 03:23:39;;;;;;;4.25;1.70;;;;;;;5.27;46.47;100073.41;4778695;30;20454;-76
2022/05/05 03:26:04;;;;;;;6.40;2.15;;;;;;;5.56;46.11;100066.34;4787735;29;20483;-75
2022/05/05 03:28:30;;;;;;;4.07;1.50;;;;;;;5.55;45.51;100068.88;4797886;29;20098;-76
2022/05/05 03:30:56;;;;;;;3.50;1.73;;;;;;;5.79;44.62;100082.28;4794050;29;20043;-75
2022/05/05 03:33:21;;;;;;;4.07;1.60;;;;;;;6.05;44.30;100077.72;4770867;30;20059;-76
2022/05/05 03:35:47;;;;;;;6.68;1.60;;;;;;;6.13;44.14;100083.03;4774040;29;20058;-76
2022/05/05 03:38:13;;;;;;;6.45;1.52;;;;;;;6.06;44.05;100082.03;4787544;29;20415;-76
2022/05/05 03:40:38;;;;;;;3.50;1.40;;;;;;;6.19;43.14;100074.56;4797931;29;20043;-76
2022/05/05 03:43:04;;;;;;;4.35;1.35;;;;;;;6.35;43.13;100084.31;4772212;30;20495;-76
2022/05/05 03:45:30;;;;;;;5.00;1.50;;;;;;;6.55;42.63;100093.31;4799822;29;20531;-75
2022/05/05 03:47:56;;;;;;;3.10;1.15;;;;;;;6.78;42.29;100103.16;4786185;29;20031;-75
2022/05/05 03:50:21;;;;;;;4.20;1.60;;;;;;;6.90;41.70;100100.81;4795931;29;20047;-75
2022/05/05 03:52:47;;;;;;;4.45;1.60;;;;;;;6.91;41.57;100107.72;4785680;29;20063;-77
2022/05/05 03:55:13;;;;;;;4.25;1.40;;;;;;;6.82;41.75;100112.69;4789445;29;20075;-76
2022/05/05 03:57:38;;;;;;;4.85;1.63;;;;;;;6.86;41.79;100114.50;4787343;29;20118;-78
2022/05/05 04:00:05;;;;;;;4.53;1.55;;;;;;;7.02;41.26;100126.84;4789435;29;20062;-76
2022/05/05 04:02:37;;;;;;;6.93;1.60;;;;;;;6.84;41.39;100127.38;4788404;29;20039;-77
2022/05/05 04:05:03;;;;;;;4.43;1.42;;;;;;;7.06;41.58;100128.63;4770410;30;20397;-77
2022/05/05 04:07:29;;;;;;;4.38;1.42;;;;;;;7.06;41.01;100130.34;4798267;29;20077;-78
2022/05/05 04:09:55;;;;;;;3.78;1.58;;;;;;;7.13;41.42;100125.31;4797103;29;20503;-76
2022/05/05 04:12:21;;;;;;;;;;;;;;;7.27;41.09;100135.84;4788666;29;20057;-77
2022/05/05 04:14:47;;;;;;;3.95;1.40;;;;;;;7.39;41.21;100137.78;4795083;29;19921;-78
2022/05/05 04:17:13;;;;;;;4.32;2.20;;;;;;;7.25;40.73;100134.13;4799309;29;20049;-77
2022/05/05 04:19:39;;;;;;;7.65;2.00;;;;;;;7.32;40.59;100135.94;4793313;29;20051;-76
2022/05/05 04:22:05;;;;;;;7.28;2.10;;;;;;;7.33;40.59;100138.56;4791304;29;20071;-77
2022/05/05 04:24:31;;;;;;;8.95;1.80;;;;;;;7.20;40.94;100126.28;4791873;29;20046;-77
2022/05/05 04:26:57;;;;;;;7.03;2.03;;;;;;;7.38;41.08;100136.06;4794054;29;20503;-77
2022/05/05 04:29:22;;;;;;;7.55;1.90;;;;;;;7.27;41.14;100142.72;4798944;29;20051;-76
2022/05/05 04:31:48;;;;;;;5.65;2.00;;;;;;;7.28;41.00;100149.63;4779923;30;20035;-77
2022/05/05 04:34:14;;;;;;;6.35;2.50;;;;;;;7.44;40.37;100148.19;4803122;29;20503;-77
2022/05/05 04:36:39;;;;;;;5.72;2.10;;;;;;;7.35;40.54;100147.19;4796982;29;20043;-76
2022/05/05 04:39:05;;;;;;;8.15;2.47;;;;;;;7.01;41.43;100150.91;4794849;29;20047;-77
2022/05/05 04:41:31;;;;;;;10.98;2.50;;;;;;;6.86;42.33;100146.31;4802681;29;20122;-77
2022/05/05 04:43:57;;;;;;;7.20;1.92;;;;;;;6.84;42.10;100131.66;4799837;29;20054;-79
2022/05/05 04:46:23;;;;;;;8.32;2.38;;;;;;;6.66;41.91;100127.03;4789125;29;20126;-78
2022/05/05 04:48:49;;;;;;;4.68;1.83;;;;;;;6.93;41.76;100125.81;4766998;30;20039;-76
2022/05/05 04:51:15;;;;;;;4.93;1.80;;;;;;;6.97;41.91;100143.94;4788736;29;20128;-77
2022/05/05 04:53:41;;;;;;;7.32;1.88;;;;;;;6.95;41.49;100152.47;4798897;29;20509;-76
2022/05/05 04:56:09;;;;;;;5.20;1.85;;;;;;;6.89;41.52;100140.34;4793428;29;20107;-78
2022/05/05 04:58:36;;;;;;;6.00;1.88;;;;;;;7.06;41.14;100151.84;4789459;30;20051;-77
2022/05/05 05:01:02;;;;;;;5.93;2.05;;;;;;;7.27;40.73;100148.75;4788615;30;20074;-76
2022/05/05 05:03:39;;;;;;;3.60;1.63;;;;;;;7.25;41.04;100150.47;4790354;29;20039;-77
2022/05/05 05:06:06;;;;;;;5.70;2.00;;;;;;;7.26;40.50;100156.47;4775220;30;20135;-78
2022/05/05 05:08:33;;;;;;;6.53;1.80;;;;;;;7.06;41.48;100154.44;4758996;30;20039;-76
2022/05/05 05:10:58;;;;;;;5.95;1.67;;;;;;;6.93;41.56;100156.75;4759183;30;20046;-77
2022/05/05 05:13:24;;;;;;;4.57;1.80;;;;;;;6.62;42.08;100151.00;4773928;30;20385;-77
2022/05/05 05:15:50;;;;;;;5.13;1.90;;;;;;;6.60;42.26;100157.84;4788319;30;20050;-77
2022/05/05 05:18:15;;;;;;;9.27;2.25;;;;;;;6.68;41.92;100153.69;4789516;29;20132;-76
2022/05/05 05:20:41;;;;;;;4.47;1.90;;;;;;;6.75;42.43;100167.59;4788385;29;20055;-77
2022/05/05 05:23:07;;;;;;;3.20;1.48;;;;;;;6.83;41.83;100159.16;4774112;30;20050;-77
2022/05/05 05:25:32;;;;;;;5.18;1.90;;;;;;;7.26;40.82;100164.22;4788656;30;20043;-78
2022/05/05 05:27:58;;;;;;;6.22;1.63;;;;;;;7.41;39.56;100161.03;4788652;30;20046;-77
2022/05/05 05:30:24;;;;;;;4.82;1.50;;;;;;;7.46;38.98;100173.16;4773890;30;20078;-78
2022/05/05 05:32:50;;;;;;;4.88;1.50;;;;;;;7.22;40.51;100158.13;4758666;30;20043;-76
2022/05/05 05:35:15;;;;;;;3.85;1.50;;;;;;;7.25;39.74;100180.56;4788886;30;20047;-77
2022/05/05 05:37:42;;;;;;;4.90;1.27;;;;;;;7.50;38.72;100168.94;4789562;29;20571;-77
2022/05/05 05:40:08;;;;;;;2.35;1.20;;;;;;;7.57;38.47;100163.03;4788364;29;20519;-78
2022/05/05 05:42:33;;;;;;;4.00;1.75;;;;;;;7.99;36.94;100173.13;4788085;30;20499;-77
2022/05/05 05:45:00;;;;;;;5.57;1.20;;;;;;;7.73;36.17;100133.13;4788842;30;20065;-77
2022/05/05 05:47:26;;;;;;;;;;;;;;;8.01;37.39;100166.25;4789386;29;20046;-77
2022/05/05 05:49:51;;;;;;;2.60;1.30;;;;;;;7.90;36.21;100160.09;4793204;29;19925;-77
2022/05/05 05:52:17;;;;;;;3.53;1.20;;;;;;;8.01;35.06;100171.44;4781005;30;20523;-78
2022/05/05 05:54:43;;;;;;;2.75;1.10;;;;;;;8.12;34.61;100174.19;4787829;29;20059;-77
2022/05/05 05:57:09;;;;;;;7.65;1.38;;;;;;;8.19;34.36;100173.41;4795311;29;20503;-77
2022/05/05 05:59:35;;;;;;;8.48;1.80;;;;;;;8.11;34.17;100168.16;4791196;29;20039;-78
2022/05/05 06:04:45;;;;;;;3.75;1.30;;;;;;;8.20;33.24;100175.16;4793694;29;20427;-78
2022/05/05 06:07:12;;;;;;;1.38;0.82;;;;;;;8.33;33.33;100174.47;4800218;29;20043;-79
2022/05/05 06:09:37;;;;;;;1.98;1.15;;;;;;;8.39;32.55;100174.59;4789236;29;20132;-78
2022/05/05 06:12:05;;;;;;;3.30;1.30;;;;;;;8.58;32.37;100177.41;4773919;29;20515;-81
2022/05/05 06:14:31;;;;;;;2.35;1.17;;;;;;;8.81;30.83;100175.09;4773184;30;20054;-78
2022/05/05 06:16:56;;;;;;;3.80;1.10;;;;;;;8.93;30.17;100180.38;4803024;29;20043;-77
2022/05/05 06:19:23;;;;;;;1.95;1.00;;;;;;;8.84;29.93;100177.69;4796432;29;20534;-77
2022/05/05 06:21:50;;;;;;;2.97;1.00;;;;;;;8.99;29.44;100183.06;4792492;29;20141;-77
2022/05/05 06:24:16;;;;;;;3.60;1.10;;;;;;;9.16;29.32;100184.09;4793622;29;20039;-79
2022/05/05 06:26:41;;;;;;;2.33;1.05;;;;;;;9.25;28.12;100198.81;4805097;29;20030;-77
2022/05/05 06:29:07;;;;;;;2.25;0.95;;;;;;;9.43;28.23;100187.78;4792755;29;20105;-77
2022/05/05 06:31:32;;;;;;;1.65;0.93;;;;;;;9.34;28.58;100192.88;4798853;29;20051;-76
2022/05/05 06:33:58;;;;;;;;;;;;;;;9.59;29.24;100194.84;4801686;29;20150;-78
2022/05/05 06:36:24;;;;;;;2.13;1.20;;;;;;;9.59;28.10;100194.84;4787250;29;19924;-78
2022/05/05 06:38:53;;;;;;;;;;;;;;;9.61;29.70;100200.88;4787536;29;20047;-77
2022/05/05 06:41:20;;;;;;;4.13;1.60;;;;;;;9.54;28.98;100195.66;4789564;29;19917;-78
2022/05/05 06:43:46;;;;;;;4.07;1.45;;;;;;;9.60;28.72;100201.75;4780780;29;20054;-78
2022/05/05 06:46:12;;;;;;;;;;;;;;;9.93;28.72;100216.69;4772580;30;20038;-78
2022/05/05 06:48:38;;;;;;;2.20;1.20;;;;;;;10.00;27.41;100211.56;4796984;29;19970;-78
2022/05/05 06:51:04;;;;;;;3.55;1.40;;;;;;;9.97;27.59;100206.34;4793990;29;20051;-76
2022/05/05 06:53:30;;;;;;;3.65;1.20;;;;;;;10.05;27.69;100222.84;4798235;29;20070;-78
2022/05/05 06:55:58;;;;;;;1.85;1.10;;;;;;;10.00;28.00;100204.66;4801267;29;20116;-79
2022/05/05 06:58:24;;;;;;;4.50;1.15;;;;;;;10.12;27.30;100209.91;4792735;29;20066;-78
2022/05/05 07:03:34;;;;;;;4.50;1.10;;;;;;;10.30;26.84;100210.91;4792379;29;20086;-77
2022/05/05 07:06:00;;;;;;;2.47;1.17;;;;;;;10.46;27.04;100214.47;4797459;29;20510;-77
2022/05/05 07:08:26;;;;;;;4.07;0.93;;;;;;;10.56;26.70;100214.50;4797701;29;20035;-78
2022/05/05 07:10:55;;;;;;;1.70;0.90;;;;;;;10.73;26.74;100203.34;4798766;29;20394;-78
2022/05/05 07:13:24;;;;;;;2.97;1.20;;;;;;;10.85;26.44;100203.38;4773068;30;20055;-78
2022/05/05 07:15:50;;;;;;;2.83;0.90;;;;;;;10.92;26.52;100200.81;4770980;30;20043;-79
2022/05/05 07:18:16;;;;;;;3.30;1.20;;;;;;;11.20;26.39;100216.47;4787497;29;20401;-79
2022/05/05 07:20:43;;;;;;;2.28;0.90;;;;;;;11.69;25.53;100216.53;4799645;29;20190;-78
2022/05/05 07:23:14;;;;;;;3.10;1.00;;;;;;;12.06;25.77;100222.63;4794122;29;20526;-79
2022/05/05 07:25:43;;;;;;;3.97;1.30;;;;;;;12.38;24.89;100203.47;4791910;29;20427;-77
2022/05/05 07:28:09;;;;;;;2.90;1.13;;;;;;;12.53;24.43;100218.19;4772148;29;20130;-77
2022/05/05 07:30:35;;;;;;;;;;;;;;;12.68;25.60;100218.97;4772151;30;20055;-77
2022/05/05 07:33:01;;;;;;;3.53;1.10;;;;;;;12.96;24.34;100203.22;4791174;29;19916;-78
2022/05/05 07:35:27;;;;;;;7.68;1.10;;;;;;;13.14;23.71;100213.53;4771788;30;20470;-78
2022/05/05 07:37:53;;;;;;;;;;;;;;;13.49;24.86;100212.50;4789718;29;20043;-76
2022/05/05 07:40:18;;;;;;;2.83;1.30;;;;;;;13.70;23.07;100214.97;4797217;29;19921;-78
2022/05/05 07:42:44;;;;;;;2.83;1.20;;;;;;;14.03;22.77;100223.38;4789021;29;20043;-78
2022/05/05 07:45:10;;;;;;;;;;;;;;;13.83;22.97;100205.25;4798114;29;20047;-79
2022/05/05 07:47:36;;;;;;;6.05;1.60;;;;;;;13.92;22.48;100209.53;4799614;29;19917;-79
2022/05/05 07:50:02;;;;;;;;;;;;;;;14.09;23.79;100210.25;4797501;29;20051;-78
2022/05/05 07:52:28;;;;;;;3.30;1.00;;;;;;;14.30;21.97;100197.88;4800361;29;20305;-81
2022/05/05 07:54:53;;;;;;;;;;;;;;;14.51;23.08;100205.50;4773014;29;20058;-78
2022/05/05 07:57:20;;;;;;;2.97;1.10;;;;;;;14.68;21.88;100207.91;4795738;29;19925;-78
2022/05/05 07:59:46;;;;;;;2.20;1.13;;;;;;;14.92;21.86;100209.34;4791358;29;20392;-79
2022/05/05 08:02:15;;;;;;;2.97;1.20;;;;;;;15.21;20.91;100198.47;4798195;29;20031;-78
2022/05/05 08:04:44;;;;;;;2.90;1.38;;;;;;;15.04;20.72;100171.75;4798835;29;20050;-79
2022/05/05 08:07:11;;;;;;;1.90;1.13;;;;;;;15.35;21.42;100206.13;4787067;29;20043;-78
2022/05/05 08:09:37;;;;;;;4.53;1.20;;;;;;;15.67;20.80;100203.06;4797907;29;20042;-79
2022/05/05 08:12:03;;;;;;;;;;;;;;;15.91;20.65;100199.19;4792665;29;20139;-80
2022/05/05 08:14:29;;;;;;;2.53;1.10;;;;;;;15.95;20.33;100164.22;4795644;29;19928;-78
2022/05/05 08:16:55;;;;;;;;;;;;;;;16.39;21.11;100194.78;4799289;29;20046;-78
2022/05/05 08:19:22;;;;;;;3.15;1.20;;;;;;;16.65;19.41;100186.41;4792119;29;19928;-78
2022/05/05 08:21:48;;;;;;;7.18;1.10;;;;;;;16.85;19.31;100195.63;4792455;29;20068;-77
2022/05/05 08:29:42;;;;;;;2.92;1.10;;;;;;;17.47;18.23;100202.09;4800143;29;20051;-79
2022/05/05 08:32:08;;;;;;;3.28;0.90;;;;;;;17.45;18.15;100184.66;4765122;30;20138;-79
2022/05/05 08:34:34;;;;;;;4.80;1.20;;;;;;;17.67;17.87;100201.59;4759390;29;20471;-79
2022/05/05 08:37:00;;;;;;;4.65;1.23;;;;;;;17.84;18.02;100201.22;4797665;29;20039;-78
2022/05/05 08:39:25;;;;;;;5.15;1.08;;;;;;;17.90;17.63;100195.81;4771379;29;20043;-79
2022/05/05 08:41:53;;;;;;;5.88;1.25;;;;;;;18.05;18.00;100199.81;4798384;29;20587;-78
2022/05/05 08:44:19;;;;;;;3.50;1.10;;;;;;;18.29;18.09;100200.94;4772474;30;20047;-78
2022/05/05 08:46:45;;;;;;;2.85;1.10;;;;;;;18.36;17.39;100191.09;4791559;29;20100;-79
2022/05/05 08:49:11;;;;;;;3.25;1.10;;;;;;;18.21;17.15;100190.63;4783960;29;20054;-79
2022/05/05 08:51:44;;;;;;;5.90;1.40;;;;;;;17.82;17.76;100168.03;4771704;30;20116;-78
2022/05/05 08:54:12;;;;;;;2.55;1.00;;;;;;;17.99;18.12;100189.47;4789249;29;20529;-78
2022/05/05 08:56:38;;;;;;;4.15;1.38;;;;;;;18.48;17.26;100190.78;4798820;29;20411;-78
2022/05/05 08:59:05;;;;;;;1.95;0.93;;;;;;;18.52;17.22;100197.69;4796391;29;20092;-78
2022/05/05 09:01:36;;;;;;;2.65;1.30;;;;;;;18.31;17.14;100185.13;4773633;29;20062;-78
2022/05/05 09:04:04;;;;;;;2.45;1.40;;;;;;;18.51;17.26;100207.31;4796545;29;20065;-79
2022/05/05 09:06:52;;;;;;;2.53;1.20;;;;;;;18.91;16.63;100195.69;4791579;29;20110;-78
2022/05/05 09:09:31;;;;;;;1.88;1.08;;;;;;;19.38;16.40;100205.66;4803454;29;20183;-78
2022/05/05 09:12:16;;;;;;;4.03;1.10;;;;;;;19.74;16.52;100203.63;4776138;29;20057;-79
2022/05/05 09:14:45;;;;;;;5.70;1.67;;;;;;;20.09;15.30;100183.16;4792908;29;20051;-79
2022/05/05 09:17:24;;;;;;;3.60;1.65;;;;;;;20.11;15.09;100171.63;4787780;29;20134;-79
2022/05/05 09:19:51;;;;;;;6.20;1.50;;;;;;;20.18;15.47;100178.41;4760404;29;20043;-78
2022/05/05 09:22:18;;;;;;;5.13;1.20;;;;;;;20.59;15.19;100186.66;4791019;29;20488;-79
2022/05/05 09:24:46;;;;;;;3.45;1.60;;;;;;;21.30;15.05;100179.50;4799287;29;20058;-78
2022/05/05 09:27:21;;;;;;;4.22;1.40;;;;;;;21.82;14.42;100187.97;4780199;29;20054;-78
2022/05/05 09:30:02;;;;;;;6.55;1.30;;;;;;;22.21;14.22;100188.06;4798051;29;20054;-78
2022/05/05 09:32:31;;;;;;;2.55;1.60;;;;;;;22.53;13.48;100185.78;4800981;29;20051;-78
2022/05/05 09:34:58;;;;;;;2.65;1.42;;;;;;;;;;4800199;29;20121;-79
2022/05/05 09:37:24;;;;;;;3.65;1.52;;;;;;;23.26;12.70;100158.56;4790835;29;20055;-77
2022/05/05 09:39:59;;;;;;;3.38;1.52;;;;;;;23.21;12.76;100165.88;4800112;29;20100;-78
2022/05/05 09:42:37;;;;;;;3.63;1.33;;;;;;;23.64;13.54;100185.00;4800758;29;20043;-78
2022/05/05 09:45:11;;;;;;;3.20;1.40;;;;;;;24.21;12.77;100188.28;4799119;29;20591;-77
2022/05/05 09:47:37;;;;;;;3.92;1.65;;;;;;;24.84;12.28;100185.81;4794103;29;20062;-78
2022/05/05 09:50:04;;;;;;;2.60;1.50;;;;;;;25.25;11.73;100177.38;4800764;29;20531;-78
2022/05/05 09:58:00;;;;;;;2.08;1.08;;;;;;;25.88;11.20;100159.59;4791989;29;20130;-78
2022/05/05 10:05:49;;;;;;;3.33;2.30;;;;;;;25.44;11.32;100163.91;4796135;29;20063;-79
2022/05/05 10:08:15;;;;;;;4.55;2.00;;;;;;;25.42;11.46;100175.53;4785265;30;20050;-78
2022/05/05 10:10:42;;;;;;;5.80;2.55;;;;;;;25.45;11.20;100172.72;4798781;29;20035;-78
2022/05/05 10:13:09;;;;;;;4.82;2.38;;;;;;;24.90;11.52;100163.38;4791779;29;20419;-80
2022/05/05 10:15:35;;;;;;;4.85;2.08;;;;;;;25.02;11.13;100146.78;4768187;30;20063;-78
2022/05/05 10:18:02;;;;;;;4.20;2.00;;;;;;;25.04;11.48;100166.13;4801727;29;20476;-80
2022/05/05 10:20:30;;;;;;;5.15;2.30;;;;;;;25.00;11.25;100177.00;4807211;29;20126;-78
2022/05/05 10:22:59;;;;;;;3.00;1.65;;;;;;;24.92;11.35;100165.94;4806147;29;20547;-80
2022/05/05 10:25:26;;;;;;;5.38;1.92;;;;;;;24.80;11.51;100163.03;4805917;29;20112;-79
2022/05/05 10:27:52;;;;;;;6.32;2.00;;;;;;;24.76;11.60;100161.47;4795243;29;20480;-78
2022/05/05 10:30:37;;;;;;;5.53;2.05;;;;;;;24.84;11.95;100145.16;4787913;29;20095;-78
2022/05/05 10:33:04;;;;;;;5.95;1.92;;;;;;;24.90;11.46;100147.44;4788298;29;20091;-78
2022/05/05 10:35:38;;;;;;;3.72;2.00;;;;;;;25.24;11.67;100150.88;4783857;29;20035;-80
2022/05/05 10:38:50;;;;;;;4.70;2.75;;;;;;;25.06;11.32;100161.59;4782017;29;20063;-78
2022/05/05 10:41:33;;;;;;;4.10;2.42;;;;;;;24.98;12.02;100163.81;4804798;29;20106;-77
2022/05/05 10:44:20;;;;;;;3.63;2.03;;;;;;;24.78;11.01;100164.03;4790393;29;20059;-78
2022/05/05 10:46:52;;;;;;;4.00;1.98;;;;;;;24.73;11.40;100161.63;4794350;29;20070;-79
2022/05/05 10:49:30;;;;;;;3.17;1.80;;;;;;;25.27;11.65;100154.22;4776359;29;20523;-78
2022/05/05 10:52:08;;;;;;;7.32;1.77;;;;;;;25.91;11.39;100159.41;4787682;29;20088;-78
2022/05/05 10:54:45;;;;;;;5.95;1.50;;;;;;;25.80;10.58;100144.97;4802003;29;20045;-78
2022/05/05 10:57:41;;;;;;;4.82;1.40;;;;;;;25.72;11.33;100144.53;4782903;29;20195;-78
2022/05/05 11:00:13;;;;;;;4.15;1.48;;;;;;;26.08;11.01;100153.97;4776210;29;20527;-79
2022/05/05 11:03:00;;;;;;;2.80;1.40;;;;;;;25.83;10.70;100127.97;4784087;29;20095;-78
2022/05/05 11:05:27;;;;;;;2.95;1.17;;;;;;;26.44;10.77;100131.41;4794095;29;20066;-78
2022/05/05 11:08:17;;;;;;;3.72;1.30;;;;;;;26.80;11.02;100137.06;4799826;29;20035;-79
2022/05/05 11:10:47;;;;;;;5.07;1.15;;;;;;;27.08;10.19;100148.59;4798726;29;20090;-78
2022/05/05 11:13:38;;;;;;;6.28;1.40;;;;;;;27.34;10.80;100146.91;4800423;29;20451;-78
2022/05/05 11:22:17;;;;;;;1.65;0.93;;;;;;;27.30;10.18;100150.72;4799755;29;20141;-78
2022/05/05 11:24:45;;;;;;;2.15;1.10;;;;;;;27.27;10.24;100151.81;4780633;30;20543;-79
2022/05/05 11:27:31;;;;;;;2.95;0.82;;;;;;;28.06;10.24;100152.75;4789319;29;20047;-77
2022/05/05 11:29:57;;;;;;;7.60;1.27;;;;;;;27.74;9.65;100138.97;4780747;29;20051;-78
2022/05/05 11:32:33;;;;;;;1.98;0.95;;;;;;;27.98;9.99;100155.94;4772685;30;20419;-78
2022/05/05 11:34:59;;;;;;;4.53;0.95;;;;;;;27.69;9.76;100146.38;4787802;30;20137;-77
2022/05/05 11:37:28;;;;;;;2.47;0.80;;;;;;;27.98;9.88;100152.41;4769527;29;20416;-78
2022/05/05 11:39:54;;;;;;;2.60;1.00;;;;;;;28.23;9.70;100132.91;4777120;29;20061;-79
2022/05/05 11:42:20;;;;;;;4.20;2.65;;;;;;;28.17;9.46;100144.84;4772226;29;20043;-80
2022/05/05 11:44:46;;;;;;;3.83;1.40;;;;;;;28.73;9.32;100121.34;4793983;29;20050;-79
2022/05/05 11:47:12;;;;;;;2.28;1.10;;;;;;;28.35;9.46;100135.59;4790477;29;20034;-79
2022/05/05 11:49:43;;;;;;;3.85;1.08;;;;;;;28.45;9.22;100119.78;4788430;29;20047;-78
2022/05/05 11:52:11;;;;;;;2.97;1.02;;;;;;;28.38;9.14;100120.34;4763411;29;20094;-79
2022/05/05 11:54:37;;;;;;;2.22;1.10;;;;;;;27.86;9.05;100135.47;4785088;29;20058;-78
2022/05/05 11:57:03;;;;;;;3.13;1.10;;;;;;;28.09;9.57;100107.22;4778279;29;20692;-78
2022/05/05 12:02:19;;;;;;;1.60;1.00;;;;;;;28.83;8.99;100092.16;4775639;30;20427;-78
2022/05/05 12:04:58;;;;;;;2.83;1.10;;;;;;;28.30;9.01;100103.00;4780462;30;20047;-79
2022/05/05 12:07:24;;;;;;;1.60;1.10;;;;;;;28.26;9.24;100108.69;4776874;30;20496;-80
2022/05/05 12:09:54;;;;;;;2.33;1.13;;;;;;;28.88;9.12;100119.38;4764115;30;20035;-79
2022/05/05 12:12:22;;;;;;;2.88;1.08;;;;;;;29.60;8.63;100109.56;4792616;29;20091;-79
2022/05/05 12:14:49;;;;;;;3.30;1.30;;;;;;;30.01;8.34;100120.69;4795783;29;20035;-77
2022/05/05 12:17:22;;;;;;;3.95;1.13;;;;;;;30.13;8.76;100120.63;4800125;29;20074;-79
2022/05/05 12:19:59;;;;;;;4.27;1.97;;;;;;;30.68;8.34;100118.06;4781826;29;20510;-79
2022/05/05 12:22:29;;;;;;;5.88;1.38;;;;;;;29.90;8.63;100120.69;4800676;29;20038;-79